Detalii statie ROAGROLTAL [00001D0B]

Toti senzorii

Date Temperatura solului [C]Precipitatii [mm]Voltaj baterie [mV]Leaf Wetness [Min]HC Air temperature [C]HC Relative humidity [%]Punctul de roua [C]
medieminmaxsumaultimatimpmedieminmaxmediemediemin
2018-10-13 16:00:00 17.8 17.7 17.9 0 7246 20.77 20.27 21.09 25.02 -0.2 -0.9
2018-10-13 17:00:00 17.7 17.6 17.9 0 7176 19.48 18.55 20.18 24.19 -1.6 -2.2
2018-10-13 18:00:00 17.5 17.4 17.7 0 7108 16.01 14.72 18.29 29.31 -2 -2.3
2018-10-13 19:00:00 17.2 17 17.4 0 7030 13.26 12.17 15 34.14 -2.3 -2.8
2018-10-13 20:00:00 16.8 16.7 17.1 0 6962 11.42 10.18 12.06 39.89 -1.7 -2.1
2018-10-13 21:00:00 16.5 16.3 16.7 0 6904 10.15 8.21 11.73 43.37 -1.8 -2.2
2018-10-13 22:00:00 16.2 16 16.5 0 6844 7.86 7.5 8.47 50.18 -1.9 -2.3
2018-10-13 23:00:00 15.9 15.8 16.1 0 6826 7.5 7.38 7.62 55.02 -0.9 -1.4
2018-10-14 00:00:00 15.6 15.5 15.8 0 6786 7.04 6.59 7.57 58.21 -0.6 -1.1
2018-10-14 01:00:00 15.3 15.2 15.5 0 6796 7.52 6.92 7.84 56.37 -0.6 -0.8
2018-10-14 02:00:00 15 15 15.2 0 6796 7.87 7.6 8.07 54.72 -0.7 -0.9
2018-10-14 03:00:00 14.8 14.7 15 0 6796 8 7.71 8.6 54.18 -0.7 -1
2018-10-14 04:00:00 14.7 14.7 14.9 0 6786 8.49 8.37 8.78 53.26 -0.5 -0.8
2018-10-14 05:00:00 14.6 14.5 14.7 0 6766 8.41 8.24 8.57 54.29 -0.3 -0.5
2018-10-14 06:00:00 14.4 14.3 14.6 0 6748 7.83 7.42 8.38 58.43 0 -0.1
2018-10-14 07:00:00 14.3 14.1 14.4 0 6766 7.45 6.95 7.84 60.9 0.2 0
2018-10-14 08:00:00 14.2 14.1 14.3 0 7254 9.88 8.14 11.49 54.21 0.8 0.6
2018-10-14 09:00:00 14.1 13.8 14.3 0 7254 13.42 11.9 14.92 44.85 1.5 0.9
2018-10-14 10:00:00 14.3 14.3 14.6 0 7246 15.66 14.85 16.73 43.89 3.2 2
2018-10-14 11:00:00 14.7 14.5 15 0 7246 17.98 17.07 19.2 41.25 4.4 3.9
2018-10-14 12:00:00 15.3 15 15.7 0 7246 19.84 19.25 20.64 34.98 3.6 3.3
2018-10-14 13:00:00 15.9 15.7 16.3 0 7246 21.63 20.86 22.32 30.5 3.2 3
2018-10-14 14:00:00 16.5 16.3 16.8 0 7246 22.01 21.8 22.18 31.62 4.1 3.6
2018-10-14 15:00:00 17 16.9 17.4 0 7246 21.92 21.55 22.21 33 4.6 4.1
2018-10-14 16:00:00 17.3 17.2 17.5 0 7236 21.43 20.9 21.93 35.5 5.2 4.7
2018-10-14 17:00:00 17.3 17.3 17.5 0 7176 20.25 19.54 20.75 38.92 5.6 5.3
2018-10-14 18:00:00 17.2 17.1 17.4 0 7088 17.74 16.38 19.25 43.07 4.8 4.4
2018-10-14 19:00:00 17 16.9 17.2 0 7030 15.27 14.6 16.11 47.82 4.1 3.8
2018-10-14 20:00:00 16.7 16.5 16.9 0 6962 13.7 12.55 14.91 50.63 3.4 3.1
2018-10-14 21:00:00 16.4 16.3 16.7 0 6894 11.74 10.74 12.64 55.56 3 2.8
2018-10-14 22:00:00 16.1 16 16.3 0 6834 8.66 7.71 10.11 68.56 3.1 2.7
2018-10-14 23:00:00 15.9 15.8 16.1 0 6826 8.03 7.38 8.8 73.57 3.5 3.3
2018-10-15 00:00:00 15.5 15.4 15.7 0 6806 8.15 7.65 8.89 70.05 2.8 2.6
2018-10-15 01:00:00 15.3 15.2 15.4 0 6786 9.13 7.94 9.81 67.8 3.3 3
2018-10-15 02:00:00 15.1 15 15.2 0 6796 9.76 9.57 10.04 65.35 3.4 3.3
2018-10-15 03:00:00 15 14.8 15.1 0 6796 9.12 8.72 9.51 67.56 3.3 3.2
2018-10-15 04:00:00 14.7 14.7 14.9 0 6796 8.23 7.77 8.62 71.53 3.2 3.1
2018-10-15 05:00:00 14.6 14.6 14.7 0 6766 7.94 7.57 8.23 73.29 3.3 3.2
2018-10-15 06:00:00 14.5 14.4 14.6 0 6748 7.87 7.3 8.09 73.26 3.2 3.1
2018-10-15 07:00:00 14.3 14.3 14.5 0 6766 7.14 6.78 7.81 76.61 3.2 3
2018-10-15 08:00:00 14.2 14.1 14.3 0 7254 10.45 7.96 13.04 65.45 4 3.4
2018-10-15 09:00:00 14.2 14.1 14.3 0 7246 14.71 13.57 15.98 52.2 4.8 4.6
2018-10-15 10:00:00 14.4 14 14.7 0 7246 17.27 16.3 18.7 48.07 6 5.5
2018-10-15 11:00:00 14.8 14.5 15 0 7246 19.15 18.07 19.69 44.42 6.5 6.3
2018-10-15 12:00:00 15.4 15.2 15.7 0 7246 21.12 19.8 22.06 38.95 6.4 6.2
2018-10-15 13:00:00 16.1 15.8 16.3 0 7236 22.24 21.3 22.65 34.84 5.7 4.9
2018-10-15 14:00:00 16.7 16.4 17.1 0 7236 23.16 22.59 23.5 31.97 5.3 4.7
2018-10-15 15:00:00 17.1 16.9 17.4 0 7246 23.2 22.99 23.4 30.67 4.7 4.4